createdAt,value
2018-09-26T00:00:04.345Z,4.67
2018-09-26T00:03:38.237Z,4.12
2018-09-26T00:06:06.814Z,4.50
2018-09-26T00:08:35.100Z,5.17
2018-09-26T00:11:03.429Z,5.20
2018-09-26T00:13:31.788Z,4.92
2018-09-26T00:16:00.181Z,4.87
2018-09-26T00:18:28.541Z,4.85
2018-09-26T00:20:56.920Z,4.25
2018-09-26T00:23:25.304Z,4.30
2018-09-26T00:25:53.651Z,4.97
2018-09-26T00:28:28.038Z,4.70
2018-09-26T00:30:56.349Z,4.33
2018-09-26T00:33:24.708Z,5.10
2018-09-26T00:35:53.223Z,4.25
2018-09-26T00:38:21.527Z,4.42
2018-09-26T00:40:49.846Z,4.45
2018-09-26T00:43:18.196Z,4.62
2018-09-26T00:45:46.588Z,3.72
2018-09-26T00:48:15.799Z,4.42
2018-09-26T00:50:44.350Z,4.03
2018-09-26T00:53:12.664Z,3.22
2018-09-26T00:55:42.102Z,3.95
2018-09-26T00:58:10.455Z,3.80
2018-09-26T01:00:38.883Z,3.47
2018-09-26T01:03:07.453Z,3.05
2018-09-26T01:05:35.936Z,3.62
2018-09-26T01:15:19.137Z,4.65
2018-09-26T01:17:47.527Z,4.35
2018-09-26T01:20:15.768Z,4.37
2018-09-26T01:22:47.827Z,4.22
2018-09-26T01:25:16.118Z,3.80
2018-09-26T01:27:44.562Z,3.80
2018-09-26T01:30:12.946Z,4.10
2018-09-26T01:32:41.303Z,3.27
2018-09-26T01:35:09.625Z,3.55
2018-09-26T01:37:37.940Z,3.67
2018-09-26T01:40:06.558Z,3.27
2018-09-26T01:42:34.841Z,2.92
2018-09-26T01:45:03.123Z,3.77
2018-09-26T01:47:31.461Z,3.98
2018-09-26T01:49:59.815Z,3.10
2018-09-26T01:52:28.040Z,2.87
2018-09-26T01:54:56.427Z,3.05
2018-09-26T01:57:24.779Z,2.80
2018-09-26T01:59:53.144Z,3.25
2018-09-26T02:02:21.448Z,3.25
2018-09-26T02:04:52.766Z,3.50
2018-09-26T02:07:21.100Z,3.33
2018-09-26T02:09:49.402Z,3.55
2018-09-26T02:12:17.769Z,3.45
2018-09-26T02:14:46.269Z,3.75
2018-09-26T02:17:14.661Z,3.05
2018-09-26T02:19:43.093Z,2.92
2018-09-26T02:22:11.389Z,3.05
2018-09-26T02:24:39.709Z,3.33
2018-09-26T02:27:08.095Z,3.00
2018-09-26T02:29:36.447Z,3.10
2018-09-26T02:32:04.943Z,3.65
2018-09-26T02:34:33.277Z,3.30
2018-09-26T02:37:01.525Z,2.08
2018-09-26T02:39:29.907Z,2.50
2018-09-26T02:41:58.206Z,2.87
2018-09-26T02:44:26.525Z,2.40
2018-09-26T02:46:54.974Z,2.52
2018-09-26T02:49:23.660Z,2.40
2018-09-26T02:51:51.973Z,2.02
2018-09-26T02:54:20.278Z,2.33
2018-09-26T02:56:48.624Z,2.55
2018-09-26T02:59:16.908Z,2.02
2018-09-26T03:01:45.326Z,2.58
2018-09-26T03:04:13.704Z,2.72
2018-09-26T03:06:41.987Z,2.52
2018-09-26T03:09:10.894Z,2.22
2018-09-26T03:11:39.216Z,2.72
2018-09-26T03:14:07.614Z,2.98
2018-09-26T03:16:35.977Z,2.72
2018-09-26T03:19:04.347Z,2.92
2018-09-26T03:21:32.700Z,2.17
2018-09-26T03:24:01.988Z,2.27
2018-09-26T03:26:31.517Z,3.00
2018-09-26T03:28:59.899Z,2.85
2018-09-26T03:31:28.236Z,2.92
2018-09-26T03:33:56.556Z,2.92
2018-09-26T03:36:24.886Z,4.28
2018-09-26T03:38:53.260Z,3.58
2018-09-26T03:41:21.575Z,2.75
2018-09-26T03:43:49.922Z,3.40
2018-09-26T03:46:18.373Z,2.87
2018-09-26T03:48:46.661Z,2.90
2018-09-26T03:51:15.052Z,2.98
2018-09-26T03:53:43.535Z,2.50
2018-09-26T03:56:11.880Z,2.30
2018-09-26T03:58:40.221Z,2.60
2018-09-26T04:01:08.587Z,3.02
2018-09-26T04:03:40.661Z,3.25
2018-09-26T04:06:09.613Z,2.85
2018-09-26T04:08:37.961Z,2.30
2018-09-26T04:11:06.391Z,2.10
2018-09-26T04:13:34.706Z,2.02
2018-09-26T04:16:02.977Z,2.60
2018-09-26T04:18:31.296Z,2.67
2018-09-26T04:20:59.712Z,2.45
2018-09-26T04:23:28.035Z,3.25
2018-09-26T04:25:56.353Z,2.60
2018-09-26T04:28:24.695Z,2.80
2018-09-26T04:30:58.993Z,2.10
2018-09-26T04:33:27.459Z,2.55
2018-09-26T04:35:55.741Z,2.72
2018-09-26T04:38:24.097Z,2.72
2018-09-26T04:40:52.466Z,2.70
2018-09-26T04:43:20.815Z,2.62
2018-09-26T04:45:49.326Z,2.05
2018-09-26T04:48:17.629Z,2.05
2018-09-26T04:50:46.075Z,2.47
2018-09-26T04:53:14.593Z,2.55
2018-09-26T04:55:42.851Z,2.17
2018-09-26T04:58:11.182Z,2.05
2018-09-26T05:00:39.449Z,2.17
2018-09-26T05:03:07.811Z,2.00
2018-09-26T05:05:36.194Z,1.90
2018-09-26T05:08:04.535Z,2.10
2018-09-26T05:10:32.847Z,2.30
2018-09-26T05:13:01.275Z,2.00
2018-09-26T05:15:29.688Z,2.30
2018-09-26T05:17:58.048Z,1.92
2018-09-26T05:20:26.408Z,3.15
2018-09-26T05:25:47.698Z,1.70
2018-09-26T05:28:19.619Z,1.85
2018-09-26T05:30:47.996Z,2.40
2018-09-26T05:33:16.375Z,2.40
2018-09-26T05:35:44.786Z,2.50
2018-09-26T05:38:13.250Z,2.70
2018-09-26T05:40:41.554Z,3.05
2018-09-26T05:43:09.876Z,3.95
2018-09-26T05:45:38.159Z,2.83
2018-09-26T05:48:06.869Z,3.22
2018-09-26T05:50:35.191Z,2.65
2018-09-26T05:53:03.517Z,2.45
2018-09-26T05:55:32.164Z,2.65
2018-09-26T05:58:01.207Z,2.90
2018-09-26T06:00:29.632Z,2.90
2018-09-26T06:02:58.004Z,2.90
2018-09-26T06:05:26.394Z,2.92
2018-09-26T06:07:55.036Z,2.90
2018-09-26T06:10:23.314Z,3.50
2018-09-26T06:12:51.696Z,3.50
2018-09-26T06:15:19.971Z,3.77
2018-09-26T06:17:48.385Z,2.65
2018-09-26T06:20:16.778Z,2.98
2018-09-26T06:22:45.117Z,3.50
2018-09-26T06:25:13.549Z,2.80
2018-09-26T06:27:41.847Z,4.00
2018-09-26T06:30:10.912Z,2.85
2018-09-26T06:32:39.475Z,2.92
2018-09-26T06:35:07.963Z,2.65
2018-09-26T06:37:36.314Z,3.10
2018-09-26T06:40:05.401Z,3.85
2018-09-26T06:42:34.085Z,3.50
2018-09-26T06:45:02.396Z,3.10
2018-09-26T06:47:30.937Z,3.30
2018-09-26T06:49:59.231Z,2.80
2018-09-26T06:52:27.608Z,2.50
2018-09-26T06:54:56.169Z,2.20
2018-09-26T06:57:24.424Z,2.45
2018-09-26T06:59:57.745Z,2.70
2018-09-26T07:02:27.336Z,2.72
2018-09-26T07:04:55.646Z,2.50
2018-09-26T07:07:25.194Z,2.30
2018-09-26T07:09:53.550Z,2.70
2018-09-26T07:12:21.940Z,2.60
2018-09-26T07:14:50.297Z,2.35
2018-09-26T07:17:18.657Z,3.50
2018-09-26T07:19:46.992Z,2.72
2018-09-26T07:22:15.341Z,2.90
2018-09-26T07:24:43.714Z,2.60
2018-09-26T07:27:18.886Z,2.30
2018-09-26T07:29:47.264Z,2.40
2018-09-26T07:32:15.577Z,2.00
2018-09-26T07:34:43.980Z,2.02
2018-09-26T07:37:12.411Z,2.22
2018-09-26T07:39:40.792Z,2.80
2018-09-26T07:42:09.157Z,2.22
2018-09-26T07:44:37.612Z,3.17
2018-09-26T07:47:06.028Z,2.55
2018-09-26T07:49:34.396Z,2.52
2018-09-26T07:52:02.927Z,3.20
2018-09-26T07:54:31.592Z,2.95
2018-09-26T07:57:00.013Z,3.50
2018-09-26T07:59:28.432Z,3.85
2018-09-26T08:01:57.005Z,3.75
2018-09-26T08:04:25.367Z,3.67
2018-09-26T08:06:53.782Z,3.77
2018-09-26T08:09:22.146Z,3.42
2018-09-26T08:11:50.566Z,3.12
2018-09-26T08:14:19.064Z,3.45
2018-09-26T08:16:47.485Z,3.10
2018-09-26T08:19:15.887Z,2.80
2018-09-26T08:21:44.253Z,2.73
2018-09-26T08:24:12.668Z,2.30
2018-09-26T08:26:40.927Z,1.97
2018-09-26T08:29:09.362Z,2.50
2018-09-26T08:31:37.719Z,2.23
2018-09-26T08:34:06.408Z,2.23
2018-09-26T08:36:34.781Z,1.90
2018-09-26T08:39:03.240Z,2.30
2018-09-26T08:41:31.606Z,2.03
2018-09-26T08:44:00.017Z,2.30
2018-09-26T08:46:28.377Z,2.13
2018-09-26T08:48:56.844Z,2.33
2018-09-26T08:51:25.342Z,2.10
2018-09-26T08:53:53.860Z,2.23
2018-09-26T08:56:22.163Z,2.10
2018-09-26T08:58:50.464Z,1.73
2018-09-26T09:01:24.316Z,2.23
2018-09-26T09:03:52.687Z,2.03
2018-09-26T09:06:21.165Z,2.07
2018-09-26T09:08:49.455Z,2.27
2018-09-26T09:11:17.919Z,2.43
2018-09-26T09:13:56.047Z,2.47
2018-09-26T09:16:24.411Z,2.30
2018-09-26T09:18:58.893Z,2.30
2018-09-26T09:21:27.265Z,2.43
2018-09-26T09:23:55.644Z,2.23
2018-09-26T09:26:23.968Z,2.17
2018-09-26T09:28:52.237Z,2.13
2018-09-26T09:31:20.857Z,1.90
2018-09-26T09:33:49.423Z,2.33
2018-09-26T09:36:17.745Z,2.90
2018-09-26T09:38:46.074Z,2.30
2018-09-26T09:41:14.421Z,2.13
2018-09-26T09:43:42.772Z,2.10
2018-09-26T09:46:11.140Z,2.33
2018-09-26T09:48:39.478Z,2.20
2018-09-26T09:51:07.890Z,2.10
2018-09-26T09:53:36.201Z,2.20
2018-09-26T09:56:04.588Z,2.70
2018-09-26T09:58:32.913Z,3.40
2018-09-26T10:01:06.739Z,2.13
2018-09-26T10:03:35.013Z,2.00
2018-09-26T10:06:03.325Z,2.40
2018-09-26T10:08:31.689Z,2.83
2018-09-26T10:11:00.053Z,3.00
2018-09-26T10:13:29.019Z,3.60
2018-09-26T10:15:57.373Z,3.17
2018-09-26T10:18:25.727Z,3.17
2018-09-26T10:20:54.029Z,3.47
2018-09-26T10:23:22.372Z,3.30
2018-09-26T10:25:50.746Z,2.80
2018-09-26T10:28:19.075Z,2.77
2018-09-26T10:30:47.472Z,3.33
2018-09-26T10:33:15.802Z,3.70
2018-09-26T10:35:44.132Z,3.10
2018-09-26T10:38:12.643Z,3.43
2018-09-26T10:40:40.971Z,3.27
2018-09-26T10:43:09.371Z,3.20
2018-09-26T10:45:37.718Z,3.60
2018-09-26T10:48:06.064Z,3.07
2018-09-26T10:50:34.446Z,3.10
2018-09-26T10:53:02.770Z,3.77
2018-09-26T10:55:31.145Z,3.87
2018-09-26T10:57:59.503Z,3.30
2018-09-26T11:00:27.870Z,3.77
2018-09-26T11:02:56.212Z,3.83
2018-09-26T11:05:24.562Z,4.20
2018-09-26T11:07:52.900Z,4.30
2018-09-26T11:10:21.426Z,3.90
2018-09-26T11:12:49.770Z,3.37
2018-09-26T11:15:18.227Z,4.20
2018-09-26T11:17:46.599Z,3.73
2018-09-26T11:20:15.001Z,4.20
2018-09-26T11:22:43.378Z,3.73
2018-09-26T11:25:11.699Z,3.30
2018-09-26T11:27:40.046Z,3.30
2018-09-26T11:30:08.476Z,2.80
2018-09-26T11:32:36.871Z,3.53
2018-09-26T11:35:05.367Z,3.50
2018-09-26T11:37:33.793Z,3.33
2018-09-26T11:40:02.125Z,2.87
2018-09-26T11:42:30.773Z,3.03
2018-09-26T11:44:59.057Z,3.70
2018-09-26T11:47:27.366Z,3.87
2018-09-26T11:49:56.868Z,3.23
2018-09-26T11:52:25.240Z,5.63
2018-09-26T11:54:53.461Z,3.40
2018-09-26T11:57:21.732Z,4.20
2018-09-26T11:59:50.087Z,4.63
2018-09-26T12:02:18.544Z,3.57
2018-09-26T12:04:47.008Z,3.80
2018-09-26T12:07:15.441Z,3.67
2018-09-26T12:09:43.679Z,3.37
2018-09-26T12:12:12.740Z,3.60
2018-09-26T12:14:40.937Z,3.20
2018-09-26T12:17:09.382Z,3.07
2018-09-26T12:19:37.856Z,3.60
2018-09-26T12:22:06.448Z,4.10
2018-09-26T12:24:34.749Z,3.03
2018-09-26T12:27:03.173Z,3.10
2018-09-26T12:29:31.566Z,3.53
2018-09-26T12:32:00.033Z,3.10
2018-09-26T12:34:28.572Z,4.07
2018-09-26T12:36:57.535Z,3.03
2018-09-26T12:39:25.902Z,3.10
2018-09-26T12:42:00.864Z,3.23
2018-09-26T12:44:29.262Z,2.63
2018-09-26T12:46:57.677Z,3.23
2018-09-26T12:49:26.078Z,2.87
2018-09-26T12:51:54.444Z,2.70
2018-09-26T12:54:22.841Z,3.00
2018-09-26T12:56:51.181Z,3.10
2018-09-26T12:59:19.717Z,2.90
2018-09-26T13:01:48.066Z,2.90
2018-09-26T13:04:16.612Z,3.10
2018-09-26T13:06:44.930Z,2.87
2018-09-26T13:09:13.295Z,2.33
2018-09-26T13:11:41.669Z,2.93
2018-09-26T13:14:10.187Z,2.27
2018-09-26T13:16:38.497Z,3.37
2018-09-26T13:19:06.904Z,3.13
2018-09-26T13:21:35.386Z,3.07
2018-09-26T13:24:03.825Z,3.00
2018-09-26T13:26:32.493Z,3.27
2018-09-26T13:29:00.895Z,3.57
2018-09-26T13:31:29.429Z,3.63
2018-09-26T13:33:58.627Z,3.47
2018-09-26T13:36:27.200Z,2.90
2018-09-26T13:38:55.472Z,2.80
2018-09-26T13:41:23.812Z,3.13
2018-09-26T13:43:52.194Z,2.80
2018-09-26T13:46:20.736Z,2.63
2018-09-26T13:48:48.942Z,3.40
2018-09-26T13:51:17.355Z,2.50
2018-09-26T13:53:45.935Z,3.20
2018-09-26T13:56:21.167Z,2.37
2018-09-26T13:58:49.546Z,3.47
2018-09-26T14:01:17.973Z,3.17
2018-09-26T14:03:46.297Z,2.63
2018-09-26T14:06:14.649Z,2.60
2018-09-26T14:08:43.062Z,2.80
2018-09-26T14:11:11.405Z,2.70
2018-09-26T14:13:39.753Z,2.50
2018-09-26T14:16:08.747Z,3.03
2018-09-26T14:18:37.519Z,2.80
2018-09-26T14:21:05.865Z,2.50
2018-09-26T14:23:34.362Z,2.73
2018-09-26T14:26:02.678Z,3.03
2018-09-26T14:28:37.748Z,3.03
2018-09-26T14:31:06.273Z,2.80
2018-09-26T14:33:34.669Z,3.90
2018-09-26T14:36:03.811Z,2.97
2018-09-26T14:38:32.232Z,3.87
2018-09-26T14:41:00.673Z,3.53
2018-09-26T14:43:29.029Z,2.80
2018-09-26T14:45:57.798Z,2.73
2018-09-26T14:48:26.821Z,3.10
2018-09-26T14:50:55.568Z,3.00
2018-09-26T14:53:24.588Z,2.80
2018-09-26T14:55:53.640Z,3.27
2018-09-26T14:58:22.082Z,3.60
2018-09-26T15:00:50.804Z,3.87
2018-09-26T15:03:19.796Z,2.77
2018-09-26T15:05:48.395Z,3.10
2018-09-26T15:08:17.293Z,2.90
2018-09-26T15:10:45.625Z,2.87
2018-09-26T15:13:14.349Z,3.40
2018-09-26T15:15:43.444Z,3.50
2018-09-26T15:18:12.273Z,2.80
2018-09-26T15:20:41.082Z,4.50
2018-09-26T15:23:09.782Z,3.13
2018-09-26T15:25:38.633Z,3.00
2018-09-26T15:28:07.707Z,2.70
2018-09-26T15:30:42.971Z,3.80
2018-09-26T15:33:12.023Z,4.03
2018-09-26T15:35:40.754Z,3.07
2018-09-26T15:38:09.140Z,3.67
2018-09-26T15:40:41.276Z,3.23
2018-09-26T15:43:10.091Z,3.37
2018-09-26T15:45:38.983Z,3.57
2018-09-26T15:48:07.898Z,3.73
2018-09-26T15:50:36.806Z,3.77
2018-09-26T15:53:05.454Z,4.30
2018-09-26T15:55:34.022Z,3.30
2018-09-26T15:58:02.839Z,4.47
2018-09-26T16:00:31.925Z,3.33
2018-09-26T16:03:01.095Z,3.60
2018-09-26T16:05:29.892Z,3.87
2018-09-26T16:08:03.004Z,3.47
2018-09-26T16:10:31.558Z,3.67
2018-09-26T16:13:00.581Z,3.50
2018-09-26T16:15:29.819Z,3.07
2018-09-26T16:17:58.118Z,4.23
2018-09-26T16:20:26.585Z,3.03
2018-09-26T16:22:54.894Z,3.10
2018-09-26T16:25:23.284Z,3.30
2018-09-26T16:27:51.528Z,2.70
2018-09-26T16:30:19.821Z,3.10
2018-09-26T16:32:48.108Z,3.10
2018-09-26T16:35:16.451Z,3.20
2018-09-26T16:37:44.709Z,4.30
2018-09-26T16:40:14.788Z,3.40
2018-09-26T16:42:43.042Z,4.30
2018-09-26T16:45:11.361Z,3.50
2018-09-26T16:47:39.845Z,3.50
2018-09-26T16:50:08.189Z,3.40
2018-09-26T16:52:36.423Z,3.00
2018-09-26T16:55:04.720Z,3.20
2018-09-26T16:57:32.989Z,3.33
2018-09-26T17:00:01.249Z,3.53
2018-09-26T17:02:29.559Z,3.40
2018-09-26T17:04:57.815Z,2.70
2018-09-26T17:07:26.081Z,3.10
2018-09-26T17:09:54.348Z,3.57
2018-09-26T17:12:22.708Z,3.07
2018-09-26T17:14:51.009Z,2.63
2018-09-26T17:17:19.288Z,2.93
2018-09-26T17:19:47.574Z,5.10
2018-09-26T17:22:16.408Z,3.07
2018-09-26T17:24:45.096Z,2.90
2018-09-26T17:27:13.886Z,3.37
2018-09-26T17:29:42.502Z,2.73
2018-09-26T17:32:11.365Z,2.87
2018-09-26T17:34:40.472Z,2.93
2018-09-26T17:37:09.303Z,3.10
2018-09-26T17:39:44.541Z,3.70
2018-09-26T17:42:13.052Z,2.13
2018-09-26T17:44:41.540Z,2.03
2018-09-26T17:47:10.018Z,2.43
2018-09-26T17:49:38.609Z,2.40
2018-09-26T17:52:07.364Z,2.67
2018-09-26T17:54:36.043Z,1.90
2018-09-26T17:57:05.430Z,2.50
2018-09-26T17:59:34.004Z,2.83
2018-09-26T18:02:02.697Z,2.70
2018-09-26T18:04:31.531Z,2.30
2018-09-26T18:07:00.213Z,2.10
2018-09-26T18:09:28.762Z,3.40
2018-09-26T18:11:57.457Z,2.50
2018-09-26T18:14:25.927Z,2.40
2018-09-26T18:16:54.517Z,2.80
2018-09-26T18:19:23.186Z,2.67
2018-09-26T18:21:51.762Z,2.40
2018-09-26T18:24:20.183Z,2.77
2018-09-26T18:26:48.753Z,2.23
2018-09-26T18:29:17.405Z,2.10
2018-09-26T18:31:45.954Z,2.40
2018-09-26T18:34:14.673Z,2.40
2018-09-26T18:36:43.107Z,4.10
2018-09-26T18:44:17.386Z,3.10
2018-09-26T18:46:46.063Z,2.37
2018-09-26T18:49:14.706Z,2.90
2018-09-26T18:51:43.640Z,2.10
2018-09-26T18:54:12.214Z,2.50
2018-09-26T18:56:41.043Z,3.17
2018-09-26T18:59:09.968Z,2.70
2018-09-26T19:01:38.612Z,2.87
2018-09-26T19:04:07.272Z,2.70
2018-09-26T19:06:35.698Z,2.40
2018-09-26T19:09:05.527Z,4.20
2018-09-26T19:11:34.085Z,2.77
2018-09-26T19:14:02.543Z,2.60
2018-09-26T19:16:31.221Z,2.30
2018-09-26T19:18:59.814Z,2.40
2018-09-26T19:21:28.378Z,2.50
2018-09-26T19:23:56.964Z,2.50
2018-09-26T19:26:25.923Z,1.67
2018-09-26T19:28:54.466Z,1.97
2018-09-26T19:31:23.050Z,2.40
2018-09-26T19:33:51.460Z,2.50
2018-09-26T19:36:20.012Z,2.17
2018-09-26T19:38:48.486Z,1.93
2018-09-26T19:41:17.183Z,2.37
2018-09-26T19:43:45.860Z,2.90
2018-09-26T19:46:14.459Z,2.53
2018-09-26T19:48:42.897Z,2.10
2018-09-26T19:51:14.096Z,2.00
2018-09-26T19:53:42.654Z,2.53
2018-09-26T19:56:11.266Z,6.00
2018-09-26T19:58:39.675Z,3.83
2018-09-26T20:01:08.275Z,3.57
2018-09-26T20:03:36.906Z,2.90
2018-09-26T20:06:09.064Z,3.30
2018-09-26T20:08:37.627Z,3.40
2018-09-26T20:11:06.197Z,3.47
2018-09-26T20:13:34.939Z,3.23
2018-09-26T20:16:03.403Z,2.60
2018-09-26T20:18:31.879Z,3.50
2018-09-26T20:21:00.532Z,3.70
2018-09-26T20:23:29.168Z,2.97
2018-09-26T20:25:57.705Z,2.97
2018-09-26T20:28:30.079Z,4.27
2018-09-26T20:30:58.793Z,3.13
2018-09-26T20:33:27.130Z,3.20
2018-09-26T20:35:55.821Z,3.73
2018-09-26T20:38:24.162Z,3.40
2018-09-26T20:40:52.775Z,3.70
2018-09-26T20:43:21.308Z,4.23
2018-09-26T20:45:49.965Z,3.93
2018-09-26T20:48:18.313Z,4.30
2018-09-26T20:50:46.908Z,3.73
2018-09-26T20:53:15.477Z,4.50
2018-09-26T20:55:43.929Z,4.40
2018-09-26T20:58:13.097Z,4.53
2018-09-26T21:00:41.715Z,4.03
2018-09-26T21:03:10.259Z,4.20
2018-09-26T21:05:38.944Z,5.30
2018-09-26T21:08:20.352Z,4.30
2018-09-26T21:10:48.841Z,5.13
2018-09-26T21:13:17.463Z,5.83
2018-09-26T21:15:45.906Z,4.53
2018-09-26T21:18:14.344Z,6.20
2018-09-26T21:20:42.648Z,5.80
2018-09-26T21:23:11.249Z,4.67
2018-09-26T21:25:39.583Z,4.77
2018-09-26T21:28:15.837Z,5.30
2018-09-26T21:30:44.316Z,5.10
2018-09-26T21:33:12.846Z,5.50
2018-09-26T21:35:42.110Z,6.13
2018-09-26T21:38:10.696Z,5.60
2018-09-26T21:40:39.405Z,6.27
2018-09-26T21:43:08.123Z,5.00
2018-09-26T21:45:36.786Z,7.05
2018-09-26T21:48:05.394Z,4.03
2018-09-26T21:53:01.982Z,5.50
2018-09-26T21:55:30.749Z,5.10
2018-09-26T21:58:03.228Z,5.00
2018-09-26T22:00:32.074Z,5.13
2018-09-26T22:03:00.700Z,5.87
2018-09-26T22:05:30.495Z,4.97
2018-09-26T22:07:59.006Z,5.47
2018-09-26T22:10:27.574Z,5.13
2018-09-26T22:12:55.973Z,5.30
2018-09-26T22:15:24.892Z,5.07
2018-09-26T22:17:54.619Z,5.37
2018-09-26T22:20:23.146Z,5.50
2018-09-26T22:22:51.832Z,5.60
2018-09-26T22:25:20.412Z,5.47
2018-09-26T22:27:48.937Z,5.30
2018-09-26T22:30:17.478Z,6.40
2018-09-26T22:32:46.087Z,5.40
2018-09-26T22:35:14.717Z,6.53
2018-09-26T22:37:43.271Z,5.90
2018-09-26T22:40:11.701Z,5.00
2018-09-26T22:42:43.608Z,6.03
2018-09-26T22:45:12.147Z,5.50
2018-09-26T22:47:40.682Z,4.90
2018-09-26T22:50:09.261Z,5.27
2018-09-26T22:52:37.980Z,5.40
2018-09-26T22:55:06.496Z,5.57
2018-09-26T22:57:34.985Z,5.90
2018-09-26T23:00:03.593Z,5.40
2018-09-26T23:02:33.244Z,4.97
2018-09-26T23:05:01.867Z,5.20
2018-09-26T23:07:30.475Z,5.23
2018-09-26T23:09:58.983Z,5.60
2018-09-26T23:12:27.476Z,5.63
2018-09-26T23:14:56.025Z,5.47
2018-09-26T23:17:24.740Z,4.50
2018-09-26T23:19:53.413Z,5.27
2018-09-26T23:22:21.947Z,5.27
2018-09-26T23:24:50.495Z,5.00
2018-09-26T23:27:19.028Z,5.93
2018-09-26T23:29:47.637Z,5.47
2018-09-26T23:32:16.149Z,5.17
2018-09-26T23:34:44.778Z,6.10
2018-09-26T23:37:13.215Z,5.80
2018-09-26T23:39:41.914Z,5.40
2018-09-26T23:42:10.451Z,5.03
2018-09-26T23:44:38.946Z,5.30
2018-09-26T23:47:07.661Z,6.40
2018-09-26T23:49:36.217Z,5.10
2018-09-26T23:52:04.558Z,4.87
2018-09-26T23:54:33.140Z,5.70
2018-09-26T23:57:01.637Z,4.33
2018-09-26T23:59:30.236Z,4.73
